createdAt,value
2022-12-09T00:01:14.136Z,97555.25
2022-12-09T00:03:41.947Z,97554.59
2022-12-09T00:06:11.892Z,97557.81
2022-12-09T00:08:38.718Z,97553.13
2022-12-09T00:11:06.646Z,97545.84
2022-12-09T00:13:34.033Z,97531.91
2022-12-09T00:16:05.200Z,97531.09
2022-12-09T00:18:32.879Z,97541.63
2022-12-09T00:20:59.741Z,97545.34
2022-12-09T00:23:26.641Z,97548.91
2022-12-09T00:25:57.333Z,97552.66
2022-12-09T00:28:24.027Z,97547.97
2022-12-09T00:30:50.825Z,97552.00
2022-12-09T00:33:17.840Z,97555.56
2022-12-09T00:35:44.549Z,97553.47
2022-12-09T00:38:11.181Z,97556.56
2022-12-09T00:40:37.973Z,97552.16
2022-12-09T00:43:04.694Z,97557.00
2022-12-09T00:45:31.334Z,97548.44
2022-12-09T00:47:58.019Z,97553.94
2022-12-09T00:50:24.662Z,97547.13
2022-12-09T00:52:51.289Z,97542.25
2022-12-09T00:55:18.147Z,97543.06
2022-12-09T00:57:45.089Z,97535.94
2022-12-09T01:00:12.450Z,97536.72
2022-12-09T01:02:39.374Z,97538.88
2022-12-09T01:05:06.629Z,97538.06
2022-12-09T01:07:33.527Z,97534.66
2022-12-09T01:10:00.479Z,97544.84
2022-12-09T01:12:27.256Z,97537.41
2022-12-09T01:14:54.096Z,97535.31
2022-12-09T01:17:21.126Z,97541.78
2022-12-09T01:19:47.878Z,97537.56
2022-12-09T01:22:14.538Z,97527.03
2022-12-09T01:24:41.198Z,97530.28
2022-12-09T01:27:08.209Z,97535.31
2022-12-09T01:29:35.605Z,97518.44
2022-12-09T01:32:02.752Z,97520.53
2022-12-09T01:34:29.502Z,97524.13
2022-12-09T01:36:56.290Z,97535.00
2022-12-09T01:39:23.299Z,97542.94
2022-12-09T01:41:51.461Z,97553.28
2022-12-09T01:44:24.260Z,97550.19
2022-12-09T01:46:55.870Z,97557.50
2022-12-09T01:49:27.716Z,97545.50
2022-12-09T01:52:03.933Z,97543.06
2022-12-09T01:54:32.049Z,97535.97
2022-12-09T01:56:59.149Z,97533.53
2022-12-09T01:59:27.734Z,97529.97
2022-12-09T02:01:59.268Z,97520.72
2022-12-09T02:04:29.007Z,97522.03
2022-12-09T02:06:58.531Z,97514.72
2022-12-09T02:09:25.624Z,97512.44
2022-12-09T02:12:03.520Z,97507.75
2022-12-09T02:14:54.901Z,97509.53
2022-12-09T02:17:32.451Z,97507.91
2022-12-09T02:20:13.170Z,97507.91
2022-12-09T02:22:58.327Z,97519.09
2022-12-09T02:25:33.790Z,97499.47
2022-12-09T02:28:12.927Z,97496.38
2022-12-09T02:31:02.992Z,97502.38
2022-12-09T02:33:45.651Z,97515.22
2022-12-09T02:36:16.822Z,97514.56
2022-12-09T02:38:44.416Z,97508.53
2022-12-09T02:41:25.733Z,97499.63
2022-12-09T02:43:59.110Z,97489.91
2022-12-09T02:46:27.895Z,97482.13
2022-12-09T02:48:57.220Z,97481.63
2022-12-09T02:51:31.661Z,97484.38
2022-12-09T02:54:04.666Z,97478.72
2022-12-09T02:56:33.069Z,97468.66
2022-12-09T02:58:59.744Z,97466.53
2022-12-09T03:01:49.530Z,97461.81
2022-12-09T03:04:26.321Z,97467.97
2022-12-09T03:06:53.812Z,97466.22
2022-12-09T03:09:27.412Z,97467.81
2022-12-09T03:11:56.591Z,97470.38
2022-12-09T03:14:30.161Z,97469.91
2022-12-09T03:17:08.104Z,97474.13
2022-12-09T03:19:42.485Z,97463.53
2022-12-09T03:22:14.303Z,97460.75
2022-12-09T03:24:48.604Z,97463.88
2022-12-09T03:27:20.860Z,97456.56
2022-12-09T03:29:49.859Z,97447.16
2022-12-09T03:32:19.823Z,97449.06
2022-12-09T03:34:50.365Z,97451.34
2022-12-09T03:37:20.176Z,97438.31
2022-12-09T03:39:49.560Z,97432.47
2022-12-09T03:42:21.385Z,97432.75
2022-12-09T03:45:06.860Z,97434.53
2022-12-09T03:47:33.734Z,97430.28
2022-12-09T03:50:00.844Z,97427.22
2022-12-09T03:52:37.388Z,97421.50
2022-12-09T03:55:23.938Z,97418.22
2022-12-09T03:57:55.174Z,97396.28
2022-12-09T04:00:21.944Z,97382.50
2022-12-09T04:02:49.020Z,97381.34
2022-12-09T04:05:16.210Z,97379.19
2022-12-09T04:07:43.433Z,97376.44
2022-12-09T04:10:11.352Z,97382.63
2022-12-09T04:12:40.266Z,97387.28
2022-12-09T04:15:07.564Z,97389.72
2022-12-09T04:17:34.324Z,97379.59
2022-12-09T04:20:01.567Z,97374.88
2022-12-09T04:22:30.044Z,97371.91
2022-12-09T04:24:56.798Z,97355.00
2022-12-09T04:27:23.453Z,97343.44
2022-12-09T04:29:50.190Z,97344.09
2022-12-09T04:32:16.903Z,97334.09
2022-12-09T04:34:43.589Z,97320.44
2022-12-09T04:37:10.598Z,97312.03
2022-12-09T04:39:37.420Z,97318.22
2022-12-09T04:42:04.131Z,97322.25
2022-12-09T04:44:31.026Z,97321.53
2022-12-09T04:46:57.803Z,97319.84
2022-12-09T04:49:25.014Z,97314.00
2022-12-09T04:51:51.677Z,97317.59
2022-12-09T04:54:18.546Z,97319.03
2022-12-09T04:56:45.587Z,97323.59
2022-12-09T04:59:12.248Z,97317.25
2022-12-09T05:01:39.270Z,97313.47
2022-12-09T05:04:06.462Z,97309.44
2022-12-09T05:06:33.731Z,97308.28
2022-12-09T05:09:01.303Z,97312.31
2022-12-09T05:11:28.275Z,97300.56
2022-12-09T05:13:55.392Z,97303.81
2022-12-09T05:16:22.764Z,97301.22
2022-12-09T05:18:50.167Z,97302.47
2022-12-09T05:21:20.342Z,97290.06
2022-12-09T05:23:48.700Z,97290.72
2022-12-09T05:26:17.942Z,97282.72
2022-12-09T05:28:45.594Z,97287.13
2022-12-09T05:31:15.615Z,97286.59
2022-12-09T05:33:44.102Z,97287.38
2022-12-09T05:36:12.483Z,97287.03
2022-12-09T05:38:39.924Z,97286.22
2022-12-09T05:41:07.285Z,97285.88
2022-12-09T05:43:35.100Z,97287.31
2022-12-09T05:46:02.902Z,97279.50
2022-12-09T05:48:30.316Z,97273.94
2022-12-09T05:51:00.629Z,97273.94
2022-12-09T05:53:27.797Z,97280.94
2022-12-09T05:55:54.946Z,97265.88
2022-12-09T05:58:22.270Z,97261.63
2022-12-09T06:00:49.663Z,97266.22
2022-12-09T06:03:17.022Z,97260.22
2022-12-09T06:05:44.275Z,97266.03
2022-12-09T06:08:11.365Z,97268.72
2022-12-09T06:10:41.313Z,97262.88
2022-12-09T06:13:08.790Z,97266.78
2022-12-09T06:15:36.027Z,97261.19
2022-12-09T06:18:05.997Z,97250.16
2022-12-09T06:21:05.526Z,97254.38
2022-12-09T06:23:37.919Z,97240.38
2022-12-09T06:26:19.744Z,97237.03
2022-12-09T06:28:47.111Z,97234.44
2022-12-09T06:31:43.634Z,97228.63
2022-12-09T06:34:18.778Z,97223.88
2022-12-09T06:36:45.752Z,97219.66
2022-12-09T06:39:12.641Z,97213.47
2022-12-09T06:41:50.365Z,97214.44
2022-12-09T06:44:23.583Z,97215.59
2022-12-09T06:46:51.387Z,97225.03
2022-12-09T06:49:41.162Z,97229.84
2022-12-09T06:55:13.734Z,97223.50
2022-12-09T06:57:41.323Z,97216.84
2022-12-09T07:00:09.116Z,97208.50
2022-12-09T07:02:37.332Z,97203.13
2022-12-09T07:05:11.468Z,97223.31
2022-12-09T07:07:45.135Z,97221.69
2022-12-09T07:10:12.980Z,97217.66
2022-12-09T07:12:40.156Z,97223.69
2022-12-09T07:15:07.648Z,97218.09
2022-12-09T07:17:37.031Z,97228.75
2022-12-09T07:20:08.586Z,97232.59
2022-12-09T07:22:42.629Z,97231.63
2022-12-09T07:25:11.465Z,97243.34
2022-12-09T07:27:44.771Z,97238.94
2022-12-09T07:30:17.108Z,97242.09
2022-12-09T07:32:44.410Z,97241.13
2022-12-09T07:35:20.975Z,97245.16
2022-12-09T07:38:08.062Z,97239.75
2022-12-09T07:40:43.044Z,97231.38
2022-12-09T07:43:19.851Z,97222.59
2022-12-09T07:45:46.647Z,97205.97
2022-12-09T07:48:13.655Z,97200.78
2022-12-09T07:50:40.753Z,97201.22
2022-12-09T07:53:07.501Z,97195.19
2022-12-09T07:55:34.758Z,97181.00
2022-12-09T07:58:01.768Z,97172.41
2022-12-09T08:00:28.774Z,97168.81
2022-12-09T08:02:55.591Z,97172.84
2022-12-09T08:05:22.818Z,97173.63
2022-12-09T08:07:49.667Z,97182.47
2022-12-09T08:10:17.257Z,97187.34
2022-12-09T08:12:45.568Z,97187.16
2022-12-09T08:15:13.166Z,97191.59
2022-12-09T08:17:40.517Z,97192.66
2022-12-09T08:20:08.428Z,97181.41
2022-12-09T08:22:35.653Z,97183.41
2022-12-09T08:25:02.809Z,97180.81
2022-12-09T08:27:30.252Z,97164.16
2022-12-09T08:29:57.070Z,97156.34
2022-12-09T08:32:24.113Z,97159.59
2022-12-09T08:34:51.035Z,97144.59
2022-12-09T08:37:18.170Z,97154.63
2022-12-09T08:39:44.937Z,97151.88
2022-12-09T08:42:12.163Z,97145.88
2022-12-09T08:44:40.047Z,97145.47
2022-12-09T08:47:06.838Z,97141.06
2022-12-09T08:49:33.980Z,97148.06
2022-12-09T08:52:01.184Z,97157.50
2022-12-09T08:54:28.790Z,97153.09
2022-12-09T08:56:56.430Z,97158.59
2022-12-09T08:59:24.514Z,97153.19
2022-12-09T09:01:52.582Z,97157.44
2022-12-09T09:04:21.850Z,97147.44
2022-12-09T09:06:50.702Z,97151.75
2022-12-09T09:09:20.394Z,97151.31
2022-12-09T09:11:47.406Z,97149.97
2022-12-09T09:14:15.042Z,97152.22
2022-12-09T09:16:44.275Z,97148.56
2022-12-09T09:19:17.578Z,97131.72
2022-12-09T09:21:45.037Z,97129.09
2022-12-09T09:24:14.940Z,97121.91
2022-12-09T09:26:43.504Z,97118.13
2022-12-09T09:29:13.026Z,97114.47
2022-12-09T09:31:40.981Z,97110.50
2022-12-09T09:34:08.506Z,97105.66
2022-12-09T09:36:35.612Z,97093.84
2022-12-09T09:39:03.077Z,97092.28
2022-12-09T09:41:59.602Z,97089.28
2022-12-09T09:44:44.040Z,97082.06
2022-12-09T09:47:17.934Z,97072.63
2022-12-09T09:49:46.198Z,97077.66
2022-12-09T09:52:26.041Z,97067.00
2022-12-09T09:55:02.091Z,97062.41
2022-12-09T09:57:51.857Z,97057.78
2022-12-09T10:00:27.127Z,97057.59
2022-12-09T10:03:07.014Z,97054.19
2022-12-09T10:05:53.016Z,97051.59
2022-12-09T10:08:40.069Z,97059.00
2022-12-09T10:11:25.904Z,97053.63
2022-12-09T10:14:20.285Z,97061.63
2022-12-09T10:17:04.762Z,97067.25
2022-12-09T10:19:37.763Z,97071.69
2022-12-09T10:22:34.514Z,97066.47
2022-12-09T10:25:14.941Z,97056.63
2022-12-09T10:27:50.586Z,97057.25
2022-12-09T10:30:19.882Z,97055.06
2022-12-09T10:32:47.596Z,97060.28
2022-12-09T10:35:18.035Z,97051.63
2022-12-09T10:37:46.608Z,97061.69
2022-12-09T10:40:30.301Z,97058.66
2022-12-09T10:43:14.656Z,97054.03
2022-12-09T10:48:57.973Z,97037.19
2022-12-09T10:51:30.183Z,97031.97
2022-12-09T10:54:07.003Z,97019.53
2022-12-09T10:56:37.848Z,97019.72
2022-12-09T10:59:23.244Z,97016.28
2022-12-09T11:01:52.983Z,97023.13
2022-12-09T11:04:23.056Z,97010.25
2022-12-09T11:06:59.493Z,97015.69
2022-12-09T11:09:32.630Z,97002.03
2022-12-09T11:12:02.282Z,97014.69
2022-12-09T11:14:45.426Z,97006.44
2022-12-09T11:17:20.151Z,97003.25
2022-12-09T11:19:52.627Z,97002.44
2022-12-09T11:22:21.401Z,97005.25
2022-12-09T11:24:49.963Z,96999.03
2022-12-09T11:27:34.641Z,97005.44
2022-12-09T11:30:12.476Z,97008.03
2022-12-09T11:33:01.138Z,96996.34
2022-12-09T11:35:33.240Z,96996.00
2022-12-09T11:38:04.629Z,96991.97
2022-12-09T11:40:32.738Z,96983.34
2022-12-09T11:42:59.695Z,96971.72
2022-12-09T11:45:32.149Z,96976.53
2022-12-09T11:48:27.602Z,96969.91
2022-12-09T11:50:56.017Z,96966.88
2022-12-09T11:53:22.625Z,96956.44
2022-12-09T11:55:59.669Z,96963.25
2022-12-09T11:58:33.533Z,96963.66
2022-12-09T12:01:05.372Z,96955.19
2022-12-09T12:03:39.802Z,96960.81
2022-12-09T12:06:18.305Z,96962.00
2022-12-09T12:08:52.355Z,96964.03
2022-12-09T12:11:25.557Z,96956.38
2022-12-09T12:14:01.595Z,96951.50
2022-12-09T12:16:51.566Z,96942.28
2022-12-09T12:19:22.818Z,96942.88
2022-12-09T12:22:19.966Z,96943.66
2022-12-09T12:25:18.073Z,96931.44
2022-12-09T12:28:00.544Z,96931.25
2022-12-09T12:30:45.408Z,96921.22
2022-12-09T12:34:00.561Z,96910.38
2022-12-09T12:36:53.581Z,96899.72
2022-12-09T12:39:51.915Z,96907.16
2022-12-09T12:43:11.448Z,96892.91
2022-12-09T12:46:05.066Z,96896.50
2022-12-09T12:48:56.298Z,96892.47
2022-12-09T12:51:29.078Z,96889.88
2022-12-09T12:54:16.130Z,96882.66
2022-12-09T12:56:54.206Z,96886.31
2022-12-09T12:59:26.328Z,96877.91
2022-12-09T13:02:00.983Z,96882.94
2022-12-09T13:04:44.570Z,96880.56
2022-12-09T13:07:36.882Z,96879.19
2022-12-09T13:10:16.009Z,96873.31
2022-12-09T13:13:01.164Z,96876.16
2022-12-09T13:15:33.643Z,96875.34
2022-12-09T13:18:19.462Z,96872.34
2022-12-09T13:20:50.654Z,96871.19
2022-12-09T13:23:42.304Z,96870.78
2022-12-09T13:26:29.876Z,96868.78
2022-12-09T13:29:38.017Z,96858.13
2022-12-09T13:32:32.531Z,96853.72
2022-12-09T13:35:13.104Z,96849.50
2022-12-09T13:38:07.905Z,96847.91
2022-12-09T13:40:38.853Z,96847.09
2022-12-09T13:43:12.268Z,96848.94
2022-12-09T13:46:04.173Z,96849.09
2022-12-09T13:48:30.827Z,96845.72
2022-12-09T13:53:58.447Z,96846.13
2022-12-09T13:56:37.078Z,96851.72
2022-12-09T13:59:46.251Z,96850.94
2022-12-09T14:02:34.550Z,96840.09
2022-12-09T14:05:21.071Z,96839.31
2022-12-09T14:07:54.214Z,96841.94
2022-12-09T14:10:53.422Z,96838.91
2022-12-09T14:13:31.192Z,96847.91
2022-12-09T14:16:10.269Z,96844.72
2022-12-09T14:18:41.967Z,96844.91
2022-12-09T14:21:19.895Z,96844.72
2022-12-09T14:24:27.201Z,96839.69
2022-12-09T14:27:20.746Z,96835.28
2022-12-09T14:29:51.006Z,96842.50
2022-12-09T14:32:37.894Z,96838.13
2022-12-09T14:35:12.452Z,96837.72
2022-12-09T14:38:01.476Z,96843.72
2022-12-09T14:41:08.953Z,96838.91
2022-12-09T14:44:03.601Z,96836.72
2022-12-09T14:46:34.093Z,96834.31
2022-12-09T14:49:17.861Z,96824.88
2022-12-09T14:52:01.560Z,96824.69
2022-12-09T14:54:37.444Z,96814.81
2022-12-09T14:57:16.009Z,96809.81
2022-12-09T14:59:50.295Z,96798.59
2022-12-09T15:03:22.976Z,96784.78
2022-12-09T15:05:38.595Z,96778.31
2022-12-09T15:08:10.925Z,96786.34
2022-12-09T15:10:46.089Z,96787.56
2022-12-09T15:13:19.864Z,96792.78
2022-12-09T15:15:46.760Z,96798.41
2022-12-09T15:18:20.038Z,96809.84
2022-12-09T15:20:58.528Z,96813.25
2022-12-09T15:24:01.256Z,96817.88
2022-12-09T15:26:32.782Z,96819.69
2022-12-09T15:29:19.118Z,96822.06
2022-12-09T15:31:54.889Z,96810.25
2022-12-09T15:34:27.338Z,96812.03
2022-12-09T15:37:18.155Z,96806.84
2022-12-09T15:39:59.968Z,96816.66
2022-12-09T15:42:29.602Z,96819.06
2022-12-09T15:45:01.462Z,96820.66
2022-12-09T15:47:58.677Z,96828.66
2022-12-09T15:50:30.555Z,96837.69
2022-12-09T15:53:25.328Z,96847.34
2022-12-09T15:55:58.818Z,96837.50
2022-12-09T15:58:34.219Z,96820.47
2022-12-09T16:01:02.694Z,96826.09
2022-12-09T16:03:33.207Z,96827.88
2022-12-09T16:06:02.514Z,96825.66
2022-12-09T16:08:35.364Z,96819.88
2022-12-09T16:11:02.374Z,96827.09
2022-12-09T16:13:30.225Z,96818.47
2022-12-09T16:15:58.818Z,96813.25
2022-12-09T16:18:31.182Z,96815.03
2022-12-09T16:21:12.955Z,96822.88
2022-12-09T16:23:39.920Z,96820.66
2022-12-09T16:26:07.759Z,96840.75
2022-12-09T16:28:35.051Z,96842.13
2022-12-09T16:31:15.441Z,96839.53
2022-12-09T16:33:48.030Z,96845.75
2022-12-09T16:36:19.363Z,96850.97
2022-12-09T16:39:06.900Z,96857.78
2022-12-09T16:41:49.711Z,96865.00
2022-12-09T16:44:33.805Z,96863.59
2022-12-09T16:47:19.451Z,96868.00
2022-12-09T16:49:47.719Z,96866.59
2022-12-09T16:52:18.427Z,96870.63
2022-12-09T16:54:47.096Z,96870.41
2022-12-09T16:57:17.578Z,96869.81
2022-12-09T16:59:45.536Z,96875.22
2022-12-09T17:02:32.999Z,96860.97
2022-12-09T17:05:00.632Z,96867.41
2022-12-09T17:07:27.633Z,96869.41
2022-12-09T17:09:54.395Z,96862.38
2022-12-09T17:12:21.099Z,96865.00
2022-12-09T17:14:47.916Z,96860.00
2022-12-09T17:17:14.637Z,96867.59
2022-12-09T17:19:42.357Z,96863.81
2022-12-09T17:22:11.743Z,96875.63
2022-12-09T17:24:39.845Z,96872.03
2022-12-09T17:27:07.641Z,96869.81
2022-12-09T17:29:34.291Z,96888.66
2022-12-09T17:32:04.947Z,96891.88
2022-12-09T17:34:46.337Z,96891.06
2022-12-09T17:37:21.017Z,96897.50
2022-12-09T17:40:11.035Z,96902.13
2022-12-09T17:42:37.827Z,96901.72
2022-12-09T17:45:18.898Z,96899.88
2022-12-09T17:47:45.621Z,96905.09
2022-12-09T17:50:22.563Z,96913.94
2022-12-09T17:52:49.253Z,96919.34
2022-12-09T17:55:16.043Z,96916.53
2022-12-09T17:57:42.692Z,96912.34
2022-12-09T18:00:10.958Z,96907.13
2022-12-09T18:02:38.171Z,96918.34
2022-12-09T18:05:05.577Z,96913.53
2022-12-09T18:07:32.357Z,96917.34
2022-12-09T18:09:59.014Z,96912.72
2022-12-09T18:12:25.712Z,96923.56
2022-12-09T18:14:52.445Z,96928.00
2022-12-09T18:17:19.153Z,96935.19
2022-12-09T18:19:45.916Z,96940.81
2022-12-09T18:22:12.633Z,96944.84
2022-12-09T18:24:39.297Z,96938.81
2022-12-09T18:27:06.078Z,96940.00
2022-12-09T18:29:32.970Z,96948.03
2022-12-09T18:31:59.870Z,96958.47
2022-12-09T18:34:28.300Z,96956.66
2022-12-09T18:36:55.183Z,96952.66
2022-12-09T18:39:22.304Z,96956.47
2022-12-09T18:41:49.190Z,96959.09
2022-12-09T18:44:16.195Z,96957.91
2022-12-09T18:46:46.551Z,96961.28
2022-12-09T18:49:16.560Z,96960.50
2022-12-09T18:51:45.190Z,96963.31
2022-12-09T18:54:18.178Z,96967.50
2022-12-09T18:56:48.118Z,96967.72
2022-12-09T18:59:14.759Z,96967.50
2022-12-09T19:01:44.688Z,96971.72
2022-12-09T19:04:14.881Z,96971.69
2022-12-09T19:06:44.364Z,96970.28
2022-12-09T19:09:18.495Z,96968.88
2022-12-09T19:11:46.437Z,96965.06
2022-12-09T19:14:14.556Z,96965.47
2022-12-09T19:16:42.155Z,96965.84
2022-12-09T19:19:11.046Z,96970.25
2022-12-09T19:21:38.628Z,96981.31
2022-12-09T19:24:05.887Z,96976.47
2022-12-09T19:26:34.550Z,96975.50
2022-12-09T19:29:04.942Z,96987.13
2022-12-09T19:31:36.682Z,96990.56
2022-12-09T19:34:13.141Z,96994.34
2022-12-09T19:36:39.983Z,96997.75
2022-12-09T19:39:08.372Z,96998.97
2022-12-09T19:41:35.891Z,97001.78
2022-12-09T19:44:04.140Z,97006.56
2022-12-09T19:46:31.346Z,97011.19
2022-12-09T19:48:58.724Z,97017.00
2022-12-09T19:51:27.111Z,97017.84
2022-12-09T19:53:55.537Z,97017.63
2022-12-09T19:56:22.603Z,97020.81
2022-12-09T19:58:49.837Z,97019.63
2022-12-09T20:01:25.037Z,97021.06
2022-12-09T20:03:56.964Z,97024.47
2022-12-09T20:06:24.351Z,97025.25
2022-12-09T20:08:51.061Z,97031.09
2022-12-09T20:11:20.704Z,97031.69
2022-12-09T20:13:47.870Z,97031.09
2022-12-09T20:16:18.252Z,97037.91
2022-12-09T20:18:48.713Z,97043.34
2022-12-09T20:21:17.774Z,97033.66
2022-12-09T20:23:45.771Z,97040.91
2022-12-09T20:26:15.639Z,97049.94
2022-12-09T20:28:44.388Z,97050.72
2022-12-09T20:31:14.179Z,97051.97
2022-12-09T20:33:41.711Z,97055.38
2022-12-09T20:36:12.874Z,97056.19
2022-12-09T20:38:40.126Z,97060.56
2022-12-09T20:41:10.014Z,97062.78
2022-12-09T20:43:40.855Z,97060.16
2022-12-09T20:46:11.865Z,97063.81
2022-12-09T20:48:39.709Z,97067.00
2022-12-09T20:51:08.718Z,97069.38
2022-12-09T20:53:36.606Z,97074.94
2022-12-09T20:56:04.549Z,97070.72
2022-12-09T20:58:31.631Z,97074.56
2022-12-09T21:01:05.553Z,97075.53
2022-12-09T21:03:32.553Z,97082.22
2022-12-09T21:05:59.521Z,97089.47
2022-12-09T21:08:31.287Z,97088.03
2022-12-09T21:11:07.488Z,97092.00
2022-12-09T21:13:37.985Z,97086.00
2022-12-09T21:16:07.800Z,97091.84
2022-12-09T21:18:36.511Z,97093.81
2022-12-09T21:21:04.761Z,97093.59
2022-12-09T21:23:34.369Z,97086.78
2022-12-09T21:26:05.582Z,97091.38
2022-12-09T21:28:32.787Z,97094.44
2022-12-09T21:31:05.744Z,97094.00
2022-12-09T21:33:32.476Z,97099.66
2022-12-09T21:35:59.168Z,97102.06
2022-12-09T21:38:25.834Z,97107.66
2022-12-09T21:40:52.651Z,97102.25
2022-12-09T21:43:19.370Z,97113.50
2022-12-09T21:45:46.072Z,97113.22
2022-12-09T21:48:12.843Z,97113.13
2022-12-09T21:50:40.110Z,97113.88
2022-12-09T21:53:07.008Z,97111.28
2022-12-09T21:55:35.941Z,97119.06
2022-12-09T21:58:02.613Z,97121.03
2022-12-09T22:00:29.769Z,97119.63
2022-12-09T22:02:56.381Z,97115.66
2022-12-09T22:05:23.028Z,97117.69
2022-12-09T22:07:50.059Z,97125.06
2022-12-09T22:10:16.823Z,97122.47
2022-12-09T22:12:43.952Z,97122.94
2022-12-09T22:15:11.052Z,97132.59
2022-12-09T22:17:38.145Z,97137.38
2022-12-09T22:20:48.876Z,97138.56
2022-12-09T22:22:54.369Z,97135.53
2022-12-09T22:25:21.056Z,97133.91
2022-12-09T22:27:47.677Z,97143.06
2022-12-09T22:30:14.416Z,97141.44
2022-12-09T22:32:44.454Z,97145.28
2022-12-09T22:35:14.618Z,97134.88
2022-12-09T22:37:43.836Z,97142.16
2022-12-09T22:40:11.372Z,97138.03
2022-12-09T22:42:38.118Z,97143.59
2022-12-09T22:45:14.843Z,97136.97
2022-12-09T22:47:47.908Z,97138.13
2022-12-09T22:50:14.611Z,97138.94
2022-12-09T22:52:41.263Z,97130.50
2022-12-09T22:55:12.752Z,97126.50
2022-12-09T22:57:39.581Z,97129.72
2022-12-09T23:00:20.280Z,97128.91
2022-12-09T23:02:48.237Z,97118.47
2022-12-09T23:05:15.431Z,97128.75
2022-12-09T23:07:43.305Z,97135.94
2022-12-09T23:10:17.391Z,97145.66
2022-12-09T23:12:44.063Z,97134.72
2022-12-09T23:15:11.015Z,97131.47
2022-12-09T23:17:43.947Z,97136.94
2022-12-09T23:20:17.287Z,97135.28
2022-12-09T23:22:45.612Z,97132.09
2022-12-09T23:25:12.267Z,97129.06
2022-12-09T23:27:48.188Z,97118.84
2022-12-09T23:30:14.824Z,97130.50
2022-12-09T23:32:41.576Z,97128.31
2022-12-09T23:35:18.093Z,97125.94
2022-12-09T23:38:14.705Z,97138.50
2022-12-09T23:40:50.451Z,97138.50
2022-12-09T23:43:17.583Z,97146.53
2022-12-09T23:45:45.848Z,97138.47
2022-12-09T23:48:12.585Z,97142.94
2022-12-09T23:50:44.781Z,97146.50
2022-12-09T23:53:13.707Z,97152.16
2022-12-09T23:55:42.980Z,97153.75
2022-12-09T23:58:09.922Z,97160.16
